MOL Paramount — 3ECH9 — position and weather

sailwx.info

Track history (hours):
 
Tides and Currents Weather Stations Pressure Air Temp Water Temp Dewpoint Dewpoint Depression Visibility Wind Speed Wind Dir Waves Ship Positions

MOL Paramount

Last reported at 2014-Oct-14 21:28 UTC. Time now 2014-Oct-26 01:15 UTC.
Position N 01°09' E 103°45'.
Warning: this ship's position is 11 days out of date.

Length 293 m; draft 12.4 m.

Type: Cargo ship. MMSI: 371519000.

Date/timePositionNaut miles runAvg speedWind from/ knotsBaromVisibWave heightAir tempDewpointWater temp
2014-Oct-14 21:28N 01°09' E 103°45'1010.5
2014-Oct-14 20:33N 01°14' E 103°53'3 2.5
2014-Oct-14 19:32N 01°16' E 103°51'0 0.0
2014-Oct-14 18:32N 01°16' E 103°51'0 0.0
2014-Oct-14 17:32N 01°16' E 103°51'0 0.0
2014-Oct-14 16:32N 01°16' E 103°51'0 0.0
2014-Oct-14 15:32N 01°16' E 103°51'0 0.0
2014-Oct-14 14:32N 01°16' E 103°51'0 0.0
2014-Oct-14 13:32N 01°16' E 103°51'0 0.0
2014-Oct-14 12:32N 01°16' E 103°51'0 0.0
2014-Oct-14 11:32N 01°16' E 103°51'0 0.0
2014-Oct-14 10:23N 01°16' E 103°51'0 0.0
2014-Oct-14 09:32N 01°16' E 103°51'0 0.0
2014-Oct-14 08:32N 01°16' E 103°51'0 0.0
2014-Oct-14 07:32N 01°16' E 103°51'0 0.0
2014-Oct-14 06:32N 01°16' E 103°51'0 0.0
2014-Oct-14 05:32N 01°16' E 103°51'0 0.0
2014-Oct-14 04:32N 01°16' E 103°51'0 0.0
2014-Oct-14 03:32N 01°16' E 103°51'0 0.0
2014-Oct-14 02:32N 01°16' E 103°51'0 0.0
2014-Oct-14 01:32N 01°16' E 103°51'0 0.0
2014-Oct-14 00:29N 01°16' E 103°51'0 0.0
2014-Oct-13 23:32N 01°16' E 103°51'0 0.0
2014-Oct-13 22:32N 01°16' E 103°51'0 0.0
2014-Oct-13 21:32N 01°16' E 103°51'0 0.0
2014-Oct-13 20:32N 01°16' E 103°51'0 0.0
2014-Oct-13 19:33N 01°16' E 103°51'2 2.4
2014-Oct-13 18:33N 01°14' E 103°53'1 0.9
2014-Oct-13 17:31N 01°15' E 103°53'0 0.0
2014-Oct-13 16:32N 01°15' E 103°53'0 0.1
2014-Oct-13 15:32N 01°15' E 103°53'1 1.2
2014-Oct-13 14:33N 01°14' E 103°54'3 3.2
2014-Oct-13 13:33N 01°15' E 103°58'5 5.2
2014-Oct-13 12:33N 01°16' E 104°03'7 6.8
2014-Oct-13 11:33N 01°17' E 104°09'  
2014-Oct-08 15:27N 22°34' E 114°16'1 0.8
2014-Oct-08 14:20N 22°34' E 114°16'0 0.0
2014-Oct-08 13:32N 22°34' E 114°16'0 0.0
2014-Oct-08 12:26N 22°34' E 114°16'0 0.0
2014-Oct-08 11:32N 22°34' E 114°16'0 0.0
2014-Oct-08 10:32N 22°34' E 114°16'0 0.0
2014-Oct-08 09:32N 22°34' E 114°16'0 0.0
2014-Oct-08 08:26N 22°34' E 114°16'0 0.0
2014-Oct-08 07:32N 22°34' E 114°16'0 0.0
2014-Oct-08 06:26N 22°34' E 114°16'0 0.0
2014-Oct-08 05:32N 22°34' E 114°16'0 0.0
2014-Oct-08 04:32N 22°34' E 114°16'0 0.0
2014-Oct-08 03:32N 22°34' E 114°16'0 0.0
2014-Oct-08 02:32N 22°34' E 114°16'0 0.0
2014-Oct-08 01:32N 22°34' E 114°16'0 0.0
2014-Oct-08 00:26N 22°34' E 114°16'0 0.0
2014-Oct-07 23:32N 22°34' E 114°16'0 0.0
2014-Oct-07 22:32N 22°34' E 114°16'0 0.0
2014-Oct-07 21:32N 22°34' E 114°16'0 0.0
2014-Oct-07 20:32N 22°34' E 114°16'0 0.0
2014-Oct-07 19:32N 22°34' E 114°16'0 0.1
2014-Oct-07 18:34N 22°34' E 114°16'19 2.7
2014-Oct-07 11:29N 22°17' E 114°06'3 0.1
2014-Oct-06 12:32N 22°20' E 114°07'  
Track history (hours):
 
Tides and Currents Weather Stations Pressure Air Temp Water Temp Dewpoint Dewpoint Depression Visibility Wind Speed Wind Dir Waves Ship Positions

MOL Paramount

Last reported at 2014-Oct-14 21:28 UTC. Time now 2014-Oct-26 01:15 UTC.
Position N 01°09' E 103°45'.
Warning: this ship's position is 11 days out of date.

Length 293 m; draft 12.4 m.

Type: Cargo ship. MMSI: 371519000.

Date/timePositionNaut miles runAvg speedWind from/ knotsBaromVisibWave heightAir tempDewpointWater temp
2014-Oct-14 21:28N 01°09' E 103°45'1010.5
2014-Oct-14 20:33N 01°14' E 103°53'3 2.5
2014-Oct-14 19:32N 01°16' E 103°51'0 0.0
2014-Oct-14 18:32N 01°16' E 103°51'0 0.0
2014-Oct-14 17:32N 01°16' E 103°51'0 0.0
2014-Oct-14 16:32N 01°16' E 103°51'0 0.0
2014-Oct-14 15:32N 01°16' E 103°51'0 0.0
2014-Oct-14 14:32N 01°16' E 103°51'0 0.0
2014-Oct-14 13:32N 01°16' E 103°51'0 0.0
2014-Oct-14 12:32N 01°16' E 103°51'0 0.0
2014-Oct-14 11:32N 01°16' E 103°51'0 0.0
2014-Oct-14 10:23N 01°16' E 103°51'0 0.0
2014-Oct-14 09:32N 01°16' E 103°51'0 0.0
2014-Oct-14 08:32N 01°16' E 103°51'0 0.0
2014-Oct-14 07:32N 01°16' E 103°51'0 0.0
2014-Oct-14 06:32N 01°16' E 103°51'0 0.0
2014-Oct-14 05:32N 01°16' E 103°51'0 0.0
2014-Oct-14 04:32N 01°16' E 103°51'0 0.0
2014-Oct-14 03:32N 01°16' E 103°51'0 0.0
2014-Oct-14 02:32N 01°16' E 103°51'0 0.0
2014-Oct-14 01:32N 01°16' E 103°51'0 0.0
2014-Oct-14 00:29N 01°16' E 103°51'0 0.0
2014-Oct-13 23:32N 01°16' E 103°51'0 0.0
2014-Oct-13 22:32N 01°16' E 103°51'0 0.0
2014-Oct-13 21:32N 01°16' E 103°51'0 0.0
2014-Oct-13 20:32N 01°16' E 103°51'0 0.0
2014-Oct-13 19:33N 01°16' E 103°51'2 2.4
2014-Oct-13 18:33N 01°14' E 103°53'1 0.9
2014-Oct-13 17:31N 01°15' E 103°53'0 0.0
2014-Oct-13 16:32N 01°15' E 103°53'0 0.1
2014-Oct-13 15:32N 01°15' E 103°53'1 1.2
2014-Oct-13 14:33N 01°14' E 103°54'3 3.2
2014-Oct-13 13:33N 01°15' E 103°58'5 5.2
2014-Oct-13 12:33N 01°16' E 104°03'7 6.8
2014-Oct-13 11:33N 01°17' E 104°09'  
2014-Oct-08 15:27N 22°34' E 114°16'1 0.8
2014-Oct-08 14:20N 22°34' E 114°16'0 0.0
2014-Oct-08 13:32N 22°34' E 114°16'0 0.0
2014-Oct-08 12:26N 22°34' E 114°16'0 0.0
2014-Oct-08 11:32N 22°34' E 114°16'0 0.0
2014-Oct-08 10:32N 22°34' E 114°16'0 0.0
2014-Oct-08 09:32N 22°34' E 114°16'0 0.0
2014-Oct-08 08:26N 22°34' E 114°16'0 0.0
2014-Oct-08 07:32N 22°34' E 114°16'0 0.0
2014-Oct-08 06:26N 22°34' E 114°16'0 0.0
2014-Oct-08 05:32N 22°34' E 114°16'0 0.0
2014-Oct-08 04:32N 22°34' E 114°16'0 0.0
2014-Oct-08 03:32N 22°34' E 114°16'0 0.0
2014-Oct-08 02:32N 22°34' E 114°16'0 0.0
2014-Oct-08 01:32N 22°34' E 114°16'0 0.0
2014-Oct-08 00:26N 22°34' E 114°16'0 0.0
2014-Oct-07 23:32N 22°34' E 114°16'0 0.0
2014-Oct-07 22:32N 22°34' E 114°16'0 0.0
2014-Oct-07 21:32N 22°34' E 114°16'0 0.0
2014-Oct-07 20:32N 22°34' E 114°16'0 0.0
2014-Oct-07 19:32N 22°34' E 114°16'0 0.1
2014-Oct-07 18:34N 22°34' E 114°16'19 2.7
2014-Oct-07 11:29N 22°17' E 114°06'3 0.1
2014-Oct-06 12:32N 22°20' E 114°07'  

Dump ship's entire track history